Time;durP1;ratioP1;P1;durP2;ratioP2;P2;SDS_P1;SDS_P2;PMS_P1;PMS_P2;Temp;Humidity;BMP_temperature;BMP_pressure;BME280_temperature;BME280_humidity;BME280_pressure;Samples;Min_cycle;Max_cycle;Signal;HPM_P1;HPM_P2
2022/01/28 00:00:32;;;;;;;44.23;24.45;;;;;;;1.41;100.00;142618.25;1784265;80;21086;-61
2022/01/28 00:04:49;;;;;;;39.50;22.93;;;;;;;1.42;100.00;142619.50;1777387;81;21141;-61
2022/01/28 00:07:15;;;;;;;38.80;21.70;;;;;;;1.42;100.00;142619.50;1775881;80;21009;-61
2022/01/28 00:09:42;;;;;;;38.25;21.55;;;;;;;1.42;100.00;142619.50;1777268;80;21493;-60
2022/01/28 00:12:11;;;;;;;40.95;20.55;;;;;;;1.40;100.00;142614.50;1779518;80;21552;-60
2022/01/28 00:17:52;;;;;;;35.03;20.52;;;;;;;1.34;100.00;142600.83;1779605;80;21363;-61
2022/01/28 00:38:56;;;;;;;35.35;19.85;;;;;;;1.30;100.00;142590.91;1756899;82;21545;-60
2022/01/28 00:41:23;;;;;;;36.93;22.67;;;;;;;1.30;100.00;142590.91;1773822;80;21133;-60
2022/01/28 00:43:50;;;;;;;38.48;22.00;;;;;;;1.29;100.00;142589.62;1778092;81;21063;-60
2022/01/28 00:46:17;;;;;;;40.83;21.45;;;;;;;1.28;100.00;142587.16;1779977;80;21011;-59
2022/01/28 00:48:43;;;;;;;36.48;21.48;;;;;;;1.26;100.00;142580.92;1780339;79;21043;-59
2022/01/28 00:51:10;;;;;;;37.20;20.27;;;;;;;1.26;100.00;142580.92;1765726;80;20964;-59
2022/01/28 00:53:37;;;;;;;38.02;21.62;;;;;;;1.29;100.00;142588.39;1756948;80;21490;-60
2022/01/28 00:56:04;;;;;;;36.25;20.15;;;;;;;1.31;100.00;142593.38;1761516;81;21016;-60
2022/01/28 00:58:31;;;;;;;39.08;21.87;;;;;;;1.31;100.00;142593.38;1757096;82;21028;-60
2022/01/28 01:00:58;;;;;;;37.75;20.43;;;;;;;1.29;100.00;142588.39;1765933;80;21015;-60
2022/01/28 01:03:25;;;;;;;35.03;19.92;;;;;;;1.29;100.00;142588.39;1780289;81;21020;-61
2022/01/28 01:05:51;;;;;;;37.42;20.37;;;;;;;1.29;100.00;142588.39;1780106;81;21023;-63
2022/01/28 01:08:18;;;;;;;33.90;20.05;;;;;;;1.31;100.00;142593.38;1780229;79;21528;-61
2022/01/28 01:10:45;;;;;;;31.20;19.40;;;;;;;1.33;100.00;142597.13;1776632;80;21526;-59
2022/01/28 01:13:13;;;;;;;35.38;20.50;;;;;;;1.32;100.00;142595.84;1758316;80;21044;-60
2022/01/28 01:15:44;;;;;;;33.33;19.50;;;;;;;1.29;100.00;142589.62;1765190;80;20963;-60
2022/01/28 01:23:12;;;;;;;34.38;19.48;;;;;;;1.33;100.00;142597.13;1767521;79;21020;-62
2022/01/28 01:25:49;;;;;;;31.40;19.17;;;;;;;1.34;100.00;142599.59;1780270;80;21596;-59
2022/01/28 01:28:15;;;;;;;38.73;20.27;;;;;;;1.34;100.00;142600.83;1788001;80;20992;-61
2022/01/28 01:30:43;;;;;;;35.45;19.48;;;;;;;1.31;100.00;142593.38;1786874;80;20991;-61
2022/01/28 01:33:11;;;;;;;34.10;19.37;;;;;;;1.28;100.00;142587.16;1783140;80;21025;-60
2022/01/28 01:35:40;;;;;;;32.80;18.85;;;;;;;1.27;100.00;142584.69;1783451;80;20995;-60
2022/01/28 01:38:08;;;;;;;35.05;18.92;;;;;;;1.26;100.00;142580.92;1783512;79;20991;-60
2022/01/28 01:43:17;;;;;;;33.38;20.23;;;;;;;1.25;100.00;142578.47;1788150;80;21059;-60
2022/01/28 01:45:54;;;;;;;31.95;18.60;;;;;;;1.23;100.00;142573.47;1784557;80;21058;-60
2022/01/28 01:53:41;;;;;;;34.08;19.02;;;;;;;1.25;100.00;142579.69;1788295;80;21082;-59
2022/01/28 01:56:08;;;;;;;33.13;19.25;;;;;;;1.27;100.00;142583.41;1788284;80;21039;-59
2022/01/28 01:58:35;;;;;;;35.43;18.77;;;;;;;1.28;100.00;142585.91;1785136;79;21011;-60
2022/01/28 02:01:03;;;;;;;32.85;18.52;;;;;;;1.28;100.00;142587.16;1757166;80;21027;-59
2022/01/28 02:03:30;;;;;;;34.18;18.98;;;;;;;1.30;100.00;142590.91;1783333;80;21552;-59
2022/01/28 02:06:00;;;;;;;33.30;19.45;;;;;;;1.31;100.00;142593.38;1783353;79;21516;-59
2022/01/28 02:08:33;;;;;;;36.53;20.15;;;;;;;1.32;100.00;142594.61;1786558;80;21020;-61
2022/01/28 02:11:02;;;;;;;30.82;18.07;;;;;;;1.30;100.00;142590.91;1788223;80;20996;-60
2022/01/28 02:13:35;;;;;;;32.20;19.48;;;;;;;1.28;100.00;142587.16;1788379;80;21572;-61
2022/01/28 02:16:02;;;;;;;34.98;19.20;;;;;;;1.27;100.00;142583.41;1787155;80;21007;-60
2022/01/28 02:18:29;;;;;;;32.23;20.30;;;;;;;1.25;100.00;142578.47;1788159;80;21043;-60
2022/01/28 02:21:03;;;;;;;36.13;19.55;;;;;;;1.23;100.00;142573.47;1788177;80;21524;-60
2022/01/28 02:23:24;;;;;;;32.53;19.57;;;;;;;1.20;100.00;142567.25;1786726;80;21184;-59
2022/01/28 02:25:51;;;;;;;34.95;19.20;;;;;;;1.18;100.00;142561.03;1783964;80;21039;-60
2022/01/28 02:28:21;;;;;;;33.33;18.23;;;;;;;1.11;100.00;142544.84;1783239;79;21007;-60
2022/01/28 02:30:46;;;;;;;31.70;18.10;;;;;;;1.10;100.00;142541.12;1782260;79;21003;-60
2022/01/28 02:33:17;;;;;;;39.50;22.37;;;;;;;1.10;100.00;142542.38;1783280;80;21051;-60
2022/01/28 02:35:43;;;;;;;34.00;20.32;;;;;;;1.11;100.00;142544.84;1776481;80;21035;-60
2022/01/28 02:38:13;;;;;;;34.95;19.85;;;;;;;1.13;100.00;142548.59;1775657;79;21007;-60
2022/01/28 02:40:46;;;;;;;34.78;19.37;;;;;;;1.12;100.00;142546.08;1783415;80;20995;-60
2022/01/28 02:45:45;;;;;;;32.75;19.82;;;;;;;1.15;100.00;142553.58;1691993;84;21048;-60
2022/01/28 02:48:21;;;;;;;33.20;20.52;;;;;;;1.15;100.00;142553.58;1720748;82;21008;-60
2022/01/28 02:51:22;;;;;;;34.08;20.15;;;;;;;1.13;100.00;142549.81;1725895;82;21030;-60
2022/01/28 02:53:25;;;;;;;27.90;18.45;;;;;;;1.12;100.00;142546.08;1723018;83;21019;-62
2022/01/28 02:55:58;;;;;;;37.03;19.27;;;;;;;1.08;100.00;142537.38;1724393;82;21509;-62
2022/01/28 02:58:22;;;;;;;30.23;17.90;;;;;;;1.10;100.00;142541.12;1658116;86;21591;-61
2022/01/28 03:00:49;;;;;;;30.57;17.80;;;;;;;1.09;100.00;142539.84;1722140;83;21051;-61
2022/01/28 03:03:22;;;;;;;33.00;17.82;;;;;;;1.07;100.00;142534.91;1761624;80;21502;-62
2022/01/28 03:05:52;;;;;;;34.00;19.40;;;;;;;1.11;100.00;142543.59;1772565;81;20996;-61
2022/01/28 03:08:24;;;;;;;31.37;18.45;;;;;;;1.10;100.00;142541.12;1772374;80;21033;-60
2022/01/28 03:16:19;;;;;;;28.67;17.52;;;;;;;1.05;100.00;142531.16;1777675;80;21016;-62
2022/01/28 03:18:55;;;;;;;33.20;17.85;;;;;;;1.03;100.00;142524.94;1775560;80;21064;-61
2022/01/28 03:21:40;;;;;;;32.08;18.73;;;;;;;1.05;100.00;142531.16;1772088;81;21031;-61
2022/01/28 03:23:55;;;;;;;30.55;18.02;;;;;;;1.05;100.00;142529.94;1777944;80;21020;-60
2022/01/28 03:26:27;;;;;;;29.45;16.60;;;;;;;1.02;100.00;142523.70;1783381;79;21042;-60
2022/01/28 03:28:54;;;;;;;28.23;17.57;;;;;;;1.02;100.00;142523.70;1783443;80;21528;-60
2022/01/28 03:31:22;;;;;;;33.42;18.42;;;;;;;1.01;100.00;142521.19;1783165;80;21024;-60
2022/01/28 03:33:48;;;;;;;30.30;17.65;;;;;;;1.05;100.00;142531.16;1777077;80;21064;-60
2022/01/28 03:36:15;;;;;;;30.02;18.50;;;;;;;1.07;100.00;142536.16;1772700;80;21115;-61
2022/01/28 03:38:46;;;;;;;28.27;17.85;;;;;;;1.10;100.00;142542.38;1773258;80;21473;-60
2022/01/28 03:41:16;;;;;;;32.05;17.30;;;;;;;1.10;100.00;142542.38;1772639;80;21478;-60
2022/01/28 03:43:42;;;;;;;27.70;16.45;;;;;;;1.07;100.00;142536.16;1776334;80;21024;-60
2022/01/28 03:46:09;;;;;;;25.90;16.45;;;;;;;1.06;100.00;142532.39;1783374;79;21091;-60
2022/01/28 03:48:37;;;;;;;27.73;17.10;;;;;;;1.06;100.00;142533.63;1783232;80;21477;-61
2022/01/28 03:51:05;;;;;;;29.77;17.55;;;;;;;1.06;100.00;142533.63;1752773;80;21098;-60
2022/01/28 03:53:33;;;;;;;32.45;17.98;;;;;;;1.13;100.00;142548.59;1772489;80;21013;-60
2022/01/28 03:56:00;;;;;;;26.33;15.28;;;;;;;1.16;100.00;142557.28;1772880;80;21478;-60
2022/01/28 03:58:27;;;;;;;27.07;16.30;;;;;;;1.15;100.00;142553.58;1772728;81;20973;-59
2022/01/28 04:00:56;;;;;;;27.60;15.68;;;;;;;1.15;100.00;142553.58;1772970;80;21060;-60
2022/01/28 04:03:39;;;;;;;28.65;16.73;;;;;;;1.15;100.00;142554.81;1777843;81;21038;-59
2022/01/28 04:11:28;;;;;;;24.20;15.13;;;;;;;1.17;100.00;142558.52;1722975;83;21055;-60
2022/01/28 04:14:00;;;;;;;23.45;14.98;;;;;;;1.13;100.00;142548.59;1726125;82;21070;-60
2022/01/28 04:17:17;;;;;;;26.82;14.85;;;;;;;1.13;100.00;142548.59;1695042;83;21554;-60
2022/01/28 04:19:01;;;;;;;27.20;15.15;;;;;;;1.13;100.00;142548.59;1768525;81;20996;-60
2022/01/28 04:21:27;;;;;;;26.70;16.23;;;;;;;1.15;100.00;142553.58;1773107;80;21090;-60
2022/01/28 04:23:54;;;;;;;29.87;16.27;;;;;;;1.17;100.00;142558.52;1772477;80;21487;-59
2022/01/28 04:26:21;;;;;;;25.65;15.63;;;;;;;1.17;100.00;142559.80;1777417;81;21098;-59
2022/01/28 04:28:48;;;;;;;25.70;16.05;;;;;;;1.14;100.00;142552.30;1779395;81;21040;-61
2022/01/28 04:31:15;;;;;;;28.38;16.48;;;;;;;1.13;100.00;142549.81;1779936;80;21016;-61
2022/01/28 04:33:41;;;;;;;23.10;14.90;;;;;;;1.13;100.00;142548.59;1774992;79;21004;-61
2022/01/28 04:36:11;;;;;;;26.93;15.78;;;;;;;1.16;100.00;142556.05;1774896;79;21031;-60
2022/01/28 04:39:07;;;;;;;26.33;14.98;;;;;;;1.18;100.00;142561.03;1716291;84;21013;-60
2022/01/28 04:41:22;;;;;;;26.15;14.30;;;;;;;1.18;100.00;142561.03;1739298;82;21068;-60
2022/01/28 04:43:46;;;;;;;25.27;15.10;;;;;;;1.17;100.00;142559.80;1740656;82;21052;-59
2022/01/28 04:46:16;;;;;;;20.60;14.28;;;;;;;1.16;100.00;142557.28;1776884;80;21087;-61
2022/01/28 04:48:48;;;;;;;24.63;14.95;;;;;;;1.17;100.00;142558.52;1774848;80;21000;-60
2022/01/28 04:56:30;;;;;;;26.20;14.85;;;;;;;1.26;100.00;142582.16;1778069;81;21075;-61
2022/01/28 05:07:24;;;;;;;22.85;13.20;;;;;;;1.26;100.00;142580.92;1774961;79;21046;-59
2022/01/28 05:27:46;;;;;;;23.12;13.40;;;;;;;1.41;100.00;142618.25;1779578;79;21063;-59
2022/01/28 05:30:13;;;;;;;22.10;13.05;;;;;;;1.42;100.00;142620.73;1779631;80;21476;-60
2022/01/28 05:32:40;;;;;;;26.40;13.95;;;;;;;1.43;100.00;142623.25;1779610;80;21065;-61
2022/01/28 05:35:08;;;;;;;22.05;13.62;;;;;;;1.47;100.00;142631.94;1749267;82;21080;-60
2022/01/28 05:37:35;;;;;;;24.70;13.95;;;;;;;1.51;100.00;142643.16;1758207;81;21022;-59
2022/01/28 05:40:01;;;;;;;22.02;12.65;;;;;;;1.57;100.00;142655.59;1772702;80;21081;-61
2022/01/28 05:42:30;;;;;;;22.52;13.53;;;;;;;1.57;100.00;142655.59;1758605;81;21115;-61
2022/01/28 05:44:56;;;;;;;23.60;13.53;;;;;;;1.54;100.00;142649.38;1761558;81;21041;-61
2022/01/28 05:47:24;;;;;;;20.30;12.90;;;;;;;1.55;100.00;142651.84;1763390;81;21007;-61
2022/01/28 05:49:51;;;;;;;25.52;13.72;;;;;;;1.57;100.00;142656.83;1757792;81;20996;-60
2022/01/28 05:52:18;;;;;;;20.40;13.30;;;;;;;1.59;100.00;142661.81;1779166;80;21043;-61
2022/01/28 05:54:46;;;;;;;26.60;14.15;;;;;;;1.58;100.00;142658.06;1776935;79;21025;-60
2022/01/28 05:57:12;;;;;;;23.05;14.20;;;;;;;1.59;100.00;142660.58;1775347;81;21127;-60
2022/01/28 05:59:39;;;;;;;25.55;14.05;;;;;;;1.59;100.00;142660.58;1749156;82;21557;-60
2022/01/28 06:02:06;;;;;;;25.82;13.90;;;;;;;1.59;100.00;142660.58;1748912;82;21051;-60
2022/01/28 06:04:36;;;;;;;23.12;13.65;;;;;;;1.60;100.00;142664.30;1752677;80;21071;-60
2022/01/28 06:07:02;;;;;;;22.05;13.35;;;;;;;1.61;100.00;142666.81;1735444;82;21025;-60
2022/01/28 06:09:30;;;;;;;25.43;13.78;;;;;;;1.62;100.00;142668.05;1774742;80;21494;-60
2022/01/28 06:11:57;;;;;;;24.80;15.25;;;;;;;1.64;100.00;142673.03;1778980;81;21051;-58
2022/01/28 06:14:23;;;;;;;26.48;14.65;;;;;;;1.65;100.00;142675.50;1779537;81;21032;-59
2022/01/28 06:16:50;;;;;;;24.85;15.05;;;;;;;1.67;100.00;142680.48;1775152;79;21039;-58
2022/01/28 06:19:17;;;;;;;28.20;15.45;;;;;;;1.67;100.00;142680.48;1774742;79;21016;-58
2022/01/28 06:21:44;;;;;;;24.60;14.00;;;;;;;1.67;100.00;142680.48;1779529;81;21013;-57
2022/01/28 06:24:11;;;;;;;23.75;15.10;;;;;;;1.65;100.00;142675.50;1766561;81;21025;-58
2022/01/28 06:26:40;;;;;;;26.37;15.55;;;;;;;1.67;100.00;142681.72;1775100;79;21062;-58
2022/01/28 06:29:07;;;;;;;26.27;14.65;;;;;;;1.72;100.00;142692.94;1776638;80;21008;-58
2022/01/28 06:31:34;;;;;;;27.62;15.88;;;;;;;1.75;100.00;142700.41;1777864;80;21005;-58
2022/01/28 06:34:00;;;;;;;26.68;14.07;;;;;;;1.76;100.00;142702.92;1783643;80;20985;-59
2022/01/28 06:36:28;;;;;;;24.72;15.58;;;;;;;1.79;100.00;142710.38;1774404;80;21522;-58
2022/01/28 06:38:55;;;;;;;23.62;15.23;;;;;;;1.81;100.00;142715.38;1776455;80;20976;-58
2022/01/28 06:41:22;;;;;;;27.07;14.63;;;;;;;1.83;100.00;142719.06;1768747;80;21021;-59
2022/01/28 06:43:48;;;;;;;28.52;15.40;;;;;;;1.86;100.00;142726.58;1756451;80;21681;-59
2022/01/28 06:46:16;;;;;;;26.30;15.50;;;;;;;1.90;100.00;142737.75;1766242;80;21047;-58
2022/01/28 06:48:43;;;;;;;29.75;16.50;;;;;;;1.96;100.00;142751.48;1790335;79;21096;-58
2022/01/28 06:51:09;;;;;;;28.80;16.60;;;;;;;1.99;100.00;142758.94;1788207;80;21631;-59
2022/01/28 06:53:36;;;;;;;29.40;17.52;;;;;;;2.01;100.00;142763.94;1787676;80;21015;-58
2022/01/28 06:56:06;;;;;;;29.63;16.17;;;;;;;2.00;100.00;142760.19;1787268;80;21063;-58
2022/01/28 06:58:33;;;;;;;30.15;16.57;;;;;;;2.00;100.00;142760.19;1788151;80;21016;-58
2022/01/28 07:00:59;;;;;;;29.77;17.25;;;;;;;2.03;100.00;142768.88;1788164;80;21063;-59
2022/01/28 07:03:26;;;;;;;29.60;17.12;;;;;;;2.07;100.00;142778.86;1788127;80;21568;-59
2022/01/28 07:05:53;;;;;;;32.33;18.27;;;;;;;2.13;100.00;142792.53;1787862;80;21027;-58
2022/01/28 07:08:20;;;;;;;33.25;18.07;;;;;;;2.13;100.00;142792.53;1787878;80;21008;-59
2022/01/28 07:10:46;;;;;;;30.57;17.10;;;;;;;2.13;99.93;142792.53;1787913;80;21028;-59
2022/01/28 07:13:13;;;;;;;29.67;17.87;;;;;;;2.12;99.81;142790.06;1787959;80;21520;-59
2022/01/28 07:15:40;;;;;;;31.75;18.20;;;;;;;2.12;99.74;142790.06;1788152;80;21015;-58
2022/01/28 07:18:06;;;;;;;33.45;17.90;;;;;;;2.16;99.81;142801.28;1788244;80;21038;-58
2022/01/28 07:20:34;;;;;;;34.03;19.50;;;;;;;2.23;99.56;142817.45;1788257;80;21466;-58
2022/01/28 07:23:03;;;;;;;28.52;17.32;;;;;;;2.27;99.54;142827.44;1788108;80;20977;-59
2022/01/28 07:25:30;;;;;;;29.92;16.73;;;;;;;2.34;99.32;142843.59;1788118;80;21070;-59
2022/01/28 07:27:57;;;;;;;32.35;18.23;;;;;;;2.38;99.03;142854.81;1787906;80;21028;-59
2022/01/28 07:30:24;;;;;;;31.87;17.82;;;;;;;2.40;98.88;142858.56;1787962;80;21031;-59
2022/01/28 07:32:51;;;;;;;29.87;18.17;;;;;;;2.45;98.65;142869.78;1787956;80;21000;-58
2022/01/28 07:35:19;;;;;;;30.72;17.80;;;;;;;2.52;98.44;142887.19;1788283;80;21023;-58
2022/01/28 07:37:46;;;;;;;29.75;18.67;;;;;;;2.57;98.17;142900.94;1787846;80;21031;-58
2022/01/28 07:40:13;;;;;;;32.42;20.02;;;;;;;2.59;97.64;142904.64;1787961;80;21067;-58
2022/01/28 07:42:42;;;;;;;30.60;19.70;;;;;;;2.60;97.65;142908.41;1787994;80;21537;-58
2022/01/28 07:45:14;;;;;;;32.85;18.23;;;;;;;2.65;97.56;142918.38;1788263;80;21066;-58
2022/01/28 07:47:43;;;;;;;29.67;16.57;;;;;;;2.66;97.18;142920.86;1788290;80;21497;-58
2022/01/28 07:50:12;;;;;;;28.65;16.40;;;;;;;2.65;96.84;142919.63;1786924;80;20968;-58
2022/01/28 07:52:40;;;;;;;33.23;19.12;;;;;;;2.63;96.67;142914.63;1784552;80;20991;-58
2022/01/28 07:55:13;;;;;;;35.88;19.15;;;;;;;2.62;96.66;142912.16;1787867;80;20971;-59
2022/01/28 07:57:42;;;;;;;32.45;19.48;;;;;;;2.64;96.54;142917.09;1782981;80;21004;-59
2022/01/28 08:00:12;;;;;;;34.67;17.20;;;;;;;2.63;96.32;142914.63;1788065;80;21011;-59
2022/01/28 08:02:43;;;;;;;31.02;16.37;;;;;;;2.57;96.12;142899.66;1787821;80;21000;-58
2022/01/28 08:05:11;;;;;;;32.20;17.25;;;;;;;2.50;96.26;142882.25;1786324;80;21083;-59
2022/01/28 08:07:39;;;;;;;31.62;16.62;;;;;;;2.47;96.40;142876.02;1785733;80;21350;-58
2022/01/28 08:10:08;;;;;;;33.80;18.62;;;;;;;2.46;96.33;142873.50;1780059;80;21059;-59
2022/01/28 08:12:52;;;;;;;36.35;20.32;;;;;;;2.47;96.38;142876.02;1773885;80;21028;-58
2022/01/28 08:15:20;;;;;;;35.03;20.60;;;;;;;2.48;96.38;142878.48;1777104;80;21537;-59
2022/01/28 08:17:48;;;;;;;40.05;21.68;;;;;;;2.47;96.17;142876.02;1787269;80;21069;-59
2022/01/28 08:20:15;;;;;;;34.40;19.48;;;;;;;2.47;96.28;142876.02;1787102;80;21046;-59
2022/01/28 08:22:48;;;;;;;39.67;21.27;;;;;;;2.51;96.25;142885.95;1785777;80;21039;-58
2022/01/28 08:25:19;;;;;;;33.55;18.82;;;;;;;2.56;96.12;142897.17;1787063;79;21030;-59
2022/01/28 08:27:47;;;;;;;34.90;19.62;;;;;;;2.60;95.90;142908.41;1782455;80;21102;-59
2022/01/28 08:30:17;;;;;;;26.65;15.58;;;;;;;2.63;95.41;142914.63;1773628;80;21025;-59
2022/01/28 08:32:45;;;;;;;29.82;16.23;;;;;;;2.62;95.40;142912.16;1769692;80;21001;-58
2022/01/28 08:35:13;;;;;;;29.37;16.67;;;;;;;2.58;95.30;142903.41;1771463;80;21047;-59
2022/01/28 08:37:40;;;;;;;28.62;16.37;;;;;;;2.59;95.41;142905.87;1771810;81;21584;-59
2022/01/28 08:40:09;;;;;;;26.87;15.25;;;;;;;2.63;95.25;142914.63;1766436;80;21506;-58
2022/01/28 08:42:37;;;;;;;25.25;15.63;;;;;;;2.61;94.85;142909.63;1768944;81;21166;-58
2022/01/28 08:45:05;;;;;;;24.92;14.10;;;;;;;2.60;94.93;142908.41;1767260;80;21036;-59
2022/01/28 08:47:32;;;;;;;27.32;17.12;;;;;;;2.64;94.83;142917.09;1764930;81;20997;-58
2022/01/28 08:50:00;;;;;;;26.15;16.07;;;;;;;2.64;94.94;142915.86;1766889;81;21529;-57
2022/01/28 08:52:26;;;;;;;27.25;15.23;;;;;;;2.64;94.86;142917.09;1759767;80;21051;-57
2022/01/28 08:54:53;;;;;;;27.80;15.53;;;;;;;2.60;94.86;142907.16;1759503;81;21068;-57
2022/01/28 08:57:20;;;;;;;32.15;17.23;;;;;;;2.54;95.22;142892.19;1760045;81;21517;-58
2022/01/28 08:59:47;;;;;;;27.20;16.32;;;;;;;2.52;95.68;142888.47;1764168;81;21315;-58
2022/01/28 09:02:14;;;;;;;29.90;16.27;;;;;;;2.56;95.62;142897.17;1766186;81;21049;-58
2022/01/28 09:04:41;;;;;;;26.40;16.30;;;;;;;2.57;95.45;142899.66;1761327;80;21507;-58
2022/01/28 09:07:07;;;;;;;25.62;15.30;;;;;;;2.55;95.46;142894.70;1761122;80;21025;-58
2022/01/28 09:09:35;;;;;;;27.45;14.65;;;;;;;2.56;95.45;142897.17;1767790;81;21126;-59
2022/01/28 09:12:09;;;;;;;25.05;14.53;;;;;;;2.53;95.47;142889.72;1764705;81;21004;-59
2022/01/28 09:14:35;;;;;;;27.70;15.08;;;;;;;2.54;95.43;142893.42;1766191;80;21105;-58
2022/01/28 09:17:01;;;;;;;27.52;15.70;;;;;;;2.52;95.42;142887.19;1782214;79;21055;-58
2022/01/28 09:19:30;;;;;;;27.77;16.02;;;;;;;2.59;95.49;142904.64;1782121;80;21576;-58
2022/01/28 09:21:56;;;;;;;26.37;16.00;;;;;;;2.72;95.29;142935.78;1782154;80;21065;-58
2022/01/28 09:24:23;;;;;;;25.80;15.85;;;;;;;2.86;94.87;142969.45;1781014;80;21028;-59
2022/01/28 09:26:51;;;;;;;28.55;15.98;;;;;;;2.94;94.52;142990.63;1782347;80;21043;-59
2022/01/28 09:29:18;;;;;;;27.67;16.60;;;;;;;2.99;94.16;143001.84;1780320;80;21024;-59
2022/01/28 09:31:45;;;;;;;30.15;18.10;;;;;;;3.09;93.88;143026.78;1772839;80;21059;-59
2022/01/28 09:34:11;;;;;;;24.32;15.00;;;;;;;3.22;93.53;143059.17;1776503;80;21002;-59
2022/01/28 09:36:39;;;;;;;24.25;15.18;;;;;;;3.38;92.94;143096.56;1776109;79;21372;-60
2022/01/28 09:39:07;;;;;;;24.20;15.83;;;;;;;3.54;92.17;143136.48;1772216;80;21044;-60
2022/01/28 09:41:36;;;;;;;23.25;14.50;;;;;;;3.82;92.02;143205.08;1775168;80;21060;-60
2022/01/28 09:44:02;;;;;;;23.73;15.15;;;;;;;4.08;91.06;143268.67;1764892;79;21009;-60
2022/01/28 09:46:31;;;;;;;22.75;13.65;;;;;;;4.32;89.60;143326.05;1772384;80;21017;-60
2022/01/28 09:48:57;;;;;;;24.12;14.55;;;;;;;4.48;88.54;143366.00;1773396;80;21046;-60
2022/01/28 09:51:25;;;;;;;25.65;16.97;;;;;;;4.61;87.25;143395.97;1781563;80;21113;-60
2022/01/28 09:53:52;;;;;;;26.37;16.05;;;;;;;4.75;86.62;143430.87;1781483;79;21027;-59
2022/01/28 09:56:19;;;;;;;21.75;15.68;;;;;;;4.89;86.02;143464.61;1756355;80;21035;-60
2022/01/28 09:58:46;;;;;;;26.50;15.85;;;;;;;4.91;84.71;143469.56;1775489;80;21059;-60
2022/01/28 10:01:12;;;;;;;24.37;15.28;;;;;;;4.78;84.56;143438.36;1778601;80;21023;-60
2022/01/28 10:03:39;;;;;;;25.60;16.57;;;;;;;4.57;84.41;143388.44;1774228;80;22221;-60
2022/01/28 10:06:06;;;;;;;26.52;15.68;;;;;;;4.38;84.63;143341.05;1767455;80;21071;-59
2022/01/28 10:08:35;;;;;;;27.02;15.60;;;;;;;4.23;85.04;143303.63;1768367;80;21051;-60
2022/01/28 10:11:14;;;;;;;25.72;16.42;;;;;;;4.09;85.45;143269.91;1757092;81;21084;-60
2022/01/28 10:13:46;;;;;;;26.35;14.63;;;;;;;4.01;86.09;143249.97;1764481;80;21071;-59
2022/01/28 10:16:27;;;;;;;22.75;14.50;;;;;;;3.92;86.59;143228.78;1765915;80;21075;-60
2022/01/28 10:19:00;;;;;;;24.98;14.98;;;;;;;3.87;87.06;143217.55;1767561;80;21065;-60
2022/01/28 10:21:46;;;;;;;24.15;15.40;;;;;;;3.83;87.40;143206.31;1764913;81;21589;-60
2022/01/28 10:24:24;;;;;;;23.80;14.80;;;;;;;3.75;87.72;143186.36;1765277;80;21060;-60
2022/01/28 10:27:06;;;;;;;29.40;17.65;;;;;;;3.58;88.40;143146.44;1763039;81;21063;-60
2022/01/28 10:29:30;;;;;;;27.95;17.48;;;;;;;3.56;88.86;143141.48;1768958;80;21053;-61
2022/01/28 10:32:01;;;;;;;34.43;20.77;;;;;;;3.58;89.17;143146.44;1760088;80;21075;-59
2022/01/28 10:34:35;;;;;;;25.23;16.50;;;;;;;3.62;89.36;143155.19;1763192;81;21082;-60
2022/01/28 10:37:22;;;;;;;28.30;17.85;;;;;;;3.64;89.32;143160.19;1768980;80;21506;-60
2022/01/28 10:40:00;;;;;;;24.85;17.57;;;;;;;3.72;89.44;143178.89;1770986;81;21057;-59
2022/01/28 10:42:39;;;;;;;30.15;18.75;;;;;;;3.87;89.29;143217.55;1769099;81;21790;-60
2022/01/28 10:45:13;;;;;;;26.42;17.80;;;;;;;4.01;88.79;143251.20;1777691;80;21039;-60
2022/01/28 10:47:53;;;;;;;27.98;19.37;;;;;;;4.12;88.41;143277.39;1768665;81;21077;-60
2022/01/28 10:50:38;;;;;;;26.25;16.62;;;;;;;4.20;88.04;143297.38;1777422;80;21130;-59
2022/01/28 10:53:09;;;;;;;23.80;15.63;;;;;;;4.27;87.55;143313.58;1748387;82;21101;-59
2022/01/28 10:55:45;;;;;;;23.10;16.47;;;;;;;4.33;87.14;143329.81;1763009;81;21571;-59
2022/01/28 10:58:16;;;;;;;29.42;16.35;;;;;;;4.50;86.91;143371.00;1756699;80;21549;-59
2022/01/28 11:00:50;;;;;;;25.65;15.88;;;;;;;4.64;85.90;143403.44;1767476;80;21035;-59
2022/01/28 11:03:21;;;;;;;23.87;13.90;;;;;;;4.74;85.58;143428.41;1779181;80;21501;-59
2022/01/28 11:05:47;;;;;;;24.23;15.75;;;;;;;4.96;84.81;143483.33;1773798;80;21357;-59
2022/01/28 11:08:15;;;;;;;24.18;16.10;;;;;;;5.28;84.43;143559.48;1776509;81;21087;-59
2022/01/28 11:10:43;;;;;;;22.65;15.30;;;;;;;5.66;83.82;143654.39;1774884;81;20996;-59
2022/01/28 11:13:12;;;;;;;21.10;14.07;;;;;;;5.87;81.95;143705.59;1778426;81;21031;-59
2022/01/28 11:15:39;;;;;;;21.75;13.38;;;;;;;5.86;80.04;143703.13;1778656;81;21125;-59
2022/01/28 11:18:09;;;;;;;26.10;14.07;;;;;;;5.74;79.82;143673.13;1778622;80;21015;-59
2022/01/28 11:20:47;;;;;;;25.30;14.13;;;;;;;5.64;79.97;143648.14;1769899;80;21064;-59
2022/01/28 11:23:45;;;;;;;23.40;14.30;;;;;;;5.52;80.12;143618.16;1773394;80;21612;-58
2022/01/28 11:26:35;;;;;;;24.45;14.90;;;;;;;5.42;80.14;143595.70;1777695;80;21224;-59
2022/01/28 11:29:11;;;;;;;18.90;12.90;;;;;;;5.29;80.17;143561.97;1778177;80;21607;-59
2022/01/28 11:31:57;;;;;;;26.15;14.63;;;;;;;5.16;80.41;143530.75;1778564;81;21059;-59
2022/01/28 11:34:27;;;;;;;19.23;12.90;;;;;;;5.14;80.60;143525.75;1776650;80;20964;-59
2022/01/28 11:36:59;;;;;;;19.77;13.35;;;;;;;5.18;80.48;143535.75;1740961;81;21044;-59
2022/01/28 11:39:41;;;;;;;19.73;12.80;;;;;;;5.14;80.36;143525.75;1757572;81;21474;-60
2022/01/28 11:42:18;;;;;;;19.53;13.57;;;;;;;5.06;80.37;143505.78;1776209;81;21087;-60
2022/01/28 11:44:56;;;;;;;18.48;11.97;;;;;;;4.91;80.50;143470.84;1763532;81;21528;-59
2022/01/28 11:47:33;;;;;;;20.92;13.20;;;;;;;4.76;80.90;143433.41;1774004;81;21034;-59
2022/01/28 11:50:16;;;;;;;19.65;12.10;;;;;;;4.61;81.29;143395.97;1760893;80;21130;-59
2022/01/28 11:52:47;;;;;;;17.32;10.53;;;;;;;4.50;81.76;143371.00;1769746;80;21049;-59
2022/01/28 11:55:25;;;;;;;17.52;10.60;;;;;;;4.39;81.99;143343.53;1768228;81;21009;-59
2022/01/28 11:58:08;;;;;;;16.85;10.60;;;;;;;4.37;82.34;143338.53;1769443;81;21581;-59
2022/01/28 12:00:40;;;;;;;15.10;9.20;;;;;;;4.39;82.40;143343.53;1783295;80;21067;-61
2022/01/28 12:03:26;;;;;;;22.65;13.90;;;;;;;4.41;82.05;143348.53;1772817;81;21474;-59
2022/01/28 12:05:57;;;;;;;22.65;12.75;;;;;;;4.43;81.63;143352.28;1778392;80;21079;-59
2022/01/28 12:08:32;;;;;;;18.70;11.68;;;;;;;4.41;81.62;143348.53;1778767;80;21090;-59
2022/01/28 12:11:03;;;;;;;22.07;13.38;;;;;;;4.35;81.59;143333.53;1778120;80;21063;-59
2022/01/28 12:14:01;;;;;;;20.70;12.75;;;;;;;4.30;81.98;143321.05;1778128;81;21367;-60
2022/01/28 12:16:34;;;;;;;;;;;;;;;4.27;82.27;143313.58;1742664;82;21052;-59
2022/01/28 12:19:02;;;;;;;15.85;10.75;;;;;;;4.23;82.51;143303.63;1726140;82;20143;-59
2022/01/28 12:21:34;;;;;;;16.77;10.70;;;;;;;4.17;82.75;143288.63;1776749;81;21024;-59
2022/01/28 12:24:23;;;;;;;;;;;;;;;4.12;82.96;143278.67;1764508;80;21047;-62
2022/01/28 12:27:13;;;;;;;18.87;11.28;;;;;;;4.09;83.14;143271.16;1765047;80;20156;-59
2022/01/28 12:29:47;;;;;;;17.75;11.85;;;;;;;4.08;83.16;143268.67;1769982;81;21407;-58
2022/01/28 12:32:21;;;;;;;18.25;11.43;;;;;;;4.05;83.25;143261.19;1775627;81;21043;-58
